createdAt,value
2022-10-17T00:02:12.759Z,14.25
2022-10-17T00:04:39.207Z,14.27
2022-10-17T00:07:05.595Z,14.34
2022-10-17T00:09:32.101Z,14.23
2022-10-17T00:11:58.657Z,14.30
2022-10-17T00:14:25.062Z,14.34
2022-10-17T00:16:51.431Z,14.26
2022-10-17T00:19:17.834Z,14.25
2022-10-17T00:21:44.274Z,14.18
2022-10-17T00:24:10.679Z,14.20
2022-10-17T00:26:37.054Z,14.14
2022-10-17T00:29:03.602Z,14.09
2022-10-17T00:31:30.026Z,14.09
2022-10-17T00:33:56.429Z,14.11
2022-10-17T00:36:25.368Z,14.05
2022-10-17T00:38:57.459Z,14.12
2022-10-17T00:41:27.313Z,14.16
2022-10-17T00:44:05.715Z,14.20
2022-10-17T00:46:38.510Z,14.20
2022-10-17T00:49:08.290Z,14.15
2022-10-17T00:51:41.583Z,14.10
2022-10-17T00:54:09.998Z,14.06
2022-10-17T00:56:36.929Z,14.05
2022-10-17T00:59:03.810Z,13.99
2022-10-17T01:01:30.603Z,13.96
2022-10-17T01:03:57.047Z,14.01
2022-10-17T01:06:23.487Z,13.98
2022-10-17T01:08:49.969Z,13.98
2022-10-17T01:11:28.185Z,14.03
2022-10-17T01:14:09.097Z,14.02
2022-10-17T01:17:08.507Z,14.06
2022-10-17T01:20:10.027Z,14.12
2022-10-17T01:22:42.334Z,14.19
2022-10-17T01:25:27.678Z,14.19
2022-10-17T01:28:11.566Z,14.20
2022-10-17T01:30:46.938Z,14.20
2022-10-17T01:33:36.447Z,14.16
2022-10-17T01:36:12.843Z,14.09
2022-10-17T01:38:59.500Z,14.06
2022-10-17T01:41:42.238Z,14.18
2022-10-17T01:44:14.876Z,14.30
2022-10-17T01:46:54.382Z,14.22
2022-10-17T01:49:26.207Z,14.15
2022-10-17T01:52:02.979Z,14.09
2022-10-17T01:54:51.650Z,14.05
2022-10-17T01:57:29.026Z,14.02
2022-10-17T01:59:57.024Z,14.03
2022-10-17T02:02:25.843Z,13.98
2022-10-17T02:04:54.001Z,13.92
2022-10-17T02:07:20.458Z,13.89
2022-10-17T02:09:46.895Z,14.04
2022-10-17T02:12:24.048Z,13.95
2022-10-17T02:15:20.877Z,13.93
2022-10-17T02:17:47.160Z,13.91
2022-10-17T02:20:16.250Z,13.87
2022-10-17T02:22:52.020Z,13.84
2022-10-17T02:25:31.311Z,13.81
2022-10-17T02:28:22.676Z,13.77
2022-10-17T02:30:56.185Z,13.90
2022-10-17T02:33:30.939Z,14.08
2022-10-17T02:36:03.157Z,14.18
2022-10-17T02:38:31.395Z,14.23
2022-10-17T02:40:57.975Z,14.21
2022-10-17T02:43:24.832Z,14.26
2022-10-17T02:45:52.467Z,14.35
2022-10-17T02:48:35.639Z,14.35
2022-10-17T02:51:20.297Z,14.36
2022-10-17T02:53:55.292Z,14.33
2022-10-17T02:56:22.388Z,14.23
2022-10-17T02:58:56.082Z,14.22
2022-10-17T03:01:23.113Z,14.23
2022-10-17T03:03:49.609Z,14.28
2022-10-17T03:06:16.135Z,14.37
2022-10-17T03:08:42.655Z,14.37
2022-10-17T03:11:09.118Z,14.44
2022-10-17T03:13:38.951Z,14.43
2022-10-17T03:16:06.457Z,14.39
2022-10-17T03:18:32.830Z,14.40
2022-10-17T03:20:59.234Z,14.37
2022-10-17T03:23:25.634Z,14.50
2022-10-17T03:25:52.004Z,14.40
2022-10-17T03:28:18.447Z,14.41
2022-10-17T03:30:44.798Z,14.40
2022-10-17T03:33:11.245Z,14.45
2022-10-17T03:35:40.309Z,14.46
2022-10-17T03:38:06.778Z,14.41
2022-10-17T03:40:33.189Z,14.47
2022-10-17T03:42:59.593Z,14.36
2022-10-17T03:45:25.943Z,14.36
2022-10-17T03:47:52.343Z,14.37
2022-10-17T03:50:18.705Z,14.26
2022-10-17T03:52:49.153Z,14.35
2022-10-17T03:55:16.320Z,14.28
2022-10-17T03:57:45.444Z,14.37
2022-10-17T04:00:13.092Z,14.46
2022-10-17T04:02:39.687Z,14.42
2022-10-17T04:05:06.751Z,14.37
2022-10-17T04:07:33.154Z,14.34
2022-10-17T04:09:59.576Z,14.32
2022-10-17T04:12:25.983Z,14.25
2022-10-17T04:14:52.447Z,14.25
2022-10-17T04:17:18.914Z,14.24
2022-10-17T04:19:45.416Z,14.31
2022-10-17T04:22:11.825Z,14.31
2022-10-17T04:24:38.224Z,14.28
2022-10-17T04:27:04.697Z,14.29
2022-10-17T04:29:31.196Z,14.32
2022-10-17T04:31:57.685Z,14.33
2022-10-17T04:34:24.073Z,14.22
2022-10-17T04:36:51.891Z,14.25
2022-10-17T04:39:18.568Z,14.31
2022-10-17T04:41:45.003Z,14.33
2022-10-17T04:44:11.550Z,14.28
2022-10-17T04:46:38.099Z,14.28
2022-10-17T04:49:04.817Z,14.25
2022-10-17T04:51:31.249Z,14.21
2022-10-17T04:53:57.672Z,14.20
2022-10-17T04:56:24.923Z,14.18
2022-10-17T04:58:52.310Z,14.24
2022-10-17T05:01:20.107Z,14.19
2022-10-17T05:03:47.214Z,14.13
2022-10-17T05:06:16.437Z,14.17
2022-10-17T05:08:42.944Z,14.11
2022-10-17T05:11:38.897Z,14.13
2022-10-17T05:14:05.510Z,14.14
2022-10-17T05:16:31.974Z,14.10
2022-10-17T05:18:59.142Z,14.11
2022-10-17T05:21:27.256Z,14.13
2022-10-17T05:23:53.840Z,14.09
2022-10-17T05:26:21.021Z,14.10
2022-10-17T05:28:47.587Z,14.14
2022-10-17T05:31:14.489Z,14.06
2022-10-17T05:33:41.146Z,14.05
2022-10-17T05:36:08.427Z,14.11
2022-10-17T05:38:35.016Z,14.01
2022-10-17T05:41:05.960Z,13.98
2022-10-17T05:43:33.432Z,14.03
2022-10-17T05:46:02.505Z,14.05
2022-10-17T05:48:28.975Z,14.00
2022-10-17T05:50:59.979Z,14.01
2022-10-17T05:53:26.771Z,13.97
2022-10-17T05:56:00.631Z,14.08
2022-10-17T06:01:14.066Z,13.99
2022-10-17T06:03:40.586Z,14.05
2022-10-17T06:06:12.069Z,14.09
2022-10-17T06:08:38.637Z,14.09
2022-10-17T06:11:09.122Z,14.16
2022-10-17T06:13:37.057Z,14.11
2022-10-17T06:16:03.532Z,14.22
2022-10-17T06:18:29.986Z,14.25
2022-10-17T06:21:03.477Z,14.36
2022-10-17T06:23:30.211Z,14.41
2022-10-17T06:26:01.815Z,14.52
2022-10-17T06:28:28.748Z,14.54
2022-10-17T06:30:55.177Z,14.70
2022-10-17T06:33:23.239Z,14.68
2022-10-17T06:35:54.507Z,14.74
2022-10-17T06:38:21.439Z,14.68
2022-10-17T06:40:48.005Z,14.82
2022-10-17T06:43:14.652Z,14.88
2022-10-17T06:45:41.772Z,14.99
2022-10-17T06:48:08.459Z,15.09
2022-10-17T06:50:35.313Z,15.46
2022-10-17T06:53:01.712Z,15.42
2022-10-17T06:55:28.067Z,15.72
2022-10-17T06:57:55.825Z,15.89
2022-10-17T07:00:23.367Z,16.05
2022-10-17T07:02:49.843Z,16.25
2022-10-17T07:05:16.346Z,16.69
2022-10-17T07:07:44.785Z,16.71
2022-10-17T07:10:12.837Z,16.51
2022-10-17T07:12:39.342Z,16.43
2022-10-17T07:15:06.140Z,16.96
2022-10-17T07:17:32.655Z,16.91
2022-10-17T07:19:59.392Z,17.21
2022-10-17T07:22:26.010Z,17.37
2022-10-17T07:24:52.455Z,17.50
2022-10-17T07:27:18.864Z,17.49
2022-10-17T07:29:45.249Z,17.51
2022-10-17T07:32:11.615Z,18.00
2022-10-17T07:34:38.094Z,18.00
2022-10-17T07:37:06.894Z,18.26
2022-10-17T07:39:35.554Z,18.06
2022-10-17T07:42:02.038Z,18.12
2022-10-17T07:44:28.473Z,18.58
2022-10-17T07:46:54.917Z,18.61
2022-10-17T07:49:21.265Z,18.52
2022-10-17T07:51:48.119Z,19.00
2022-10-17T07:54:14.515Z,19.50
2022-10-17T07:56:40.953Z,19.61
2022-10-17T07:59:09.418Z,19.48
2022-10-17T08:01:36.936Z,19.08
2022-10-17T08:04:03.388Z,19.11
2022-10-17T08:06:29.782Z,19.47
2022-10-17T08:08:57.847Z,19.53
2022-10-17T08:11:25.333Z,19.31
2022-10-17T08:13:51.813Z,19.30
2022-10-17T08:16:18.299Z,19.29
2022-10-17T08:18:44.855Z,19.42
2022-10-17T08:21:13.446Z,19.35
2022-10-17T08:23:40.244Z,19.45
2022-10-17T08:26:10.505Z,19.56
2022-10-17T08:28:38.614Z,19.55
2022-10-17T08:31:13.593Z,19.92
2022-10-17T08:33:40.916Z,19.50
2022-10-17T08:36:08.588Z,19.38
2022-10-17T08:38:36.932Z,19.23
2022-10-17T08:41:11.698Z,19.11
2022-10-17T08:44:03.657Z,19.48
2022-10-17T08:46:36.513Z,18.90
2022-10-17T08:49:07.673Z,19.51
2022-10-17T08:51:53.112Z,19.43
2022-10-17T08:54:40.691Z,19.32
2022-10-17T08:57:13.042Z,18.97
2022-10-17T08:59:39.585Z,18.89
2022-10-17T09:02:37.016Z,19.11
2022-10-17T09:05:49.276Z,19.20
2022-10-17T09:08:31.681Z,19.32
2022-10-17T09:11:25.066Z,19.44
2022-10-17T09:14:09.829Z,19.20
2022-10-17T09:16:49.933Z,19.35
2022-10-17T09:19:36.754Z,19.48
2022-10-17T09:22:06.415Z,19.52
2022-10-17T09:24:42.541Z,19.88
2022-10-17T09:27:22.443Z,19.88
2022-10-17T09:29:50.875Z,20.09
2022-10-17T09:32:21.959Z,20.10
2022-10-17T09:34:48.813Z,19.99
2022-10-17T09:37:17.095Z,20.18
2022-10-17T09:39:44.625Z,20.35
2022-10-17T09:42:19.314Z,20.59
2022-10-17T09:44:54.595Z,20.55
2022-10-17T09:47:28.357Z,20.79
2022-10-17T09:49:55.043Z,20.97
2022-10-17T09:52:35.275Z,21.14
2022-10-17T09:55:04.396Z,21.13
2022-10-17T09:57:52.644Z,21.24
2022-10-17T10:00:28.168Z,21.24
2022-10-17T10:03:12.914Z,21.43
2022-10-17T10:05:40.162Z,21.34
2022-10-17T10:08:16.722Z,21.63
2022-10-17T10:10:43.766Z,20.88
2022-10-17T10:13:12.909Z,20.93
2022-10-17T10:15:42.376Z,21.18
2022-10-17T10:18:35.096Z,21.30
2022-10-17T10:21:17.313Z,21.51
2022-10-17T10:23:45.544Z,22.00
2022-10-17T10:26:21.025Z,22.06
2022-10-17T10:29:20.881Z,21.21
2022-10-17T10:31:47.622Z,21.26
2022-10-17T10:34:20.264Z,21.61
2022-10-17T10:36:54.752Z,21.76
2022-10-17T10:39:29.471Z,21.32
2022-10-17T10:41:55.955Z,21.04
2022-10-17T10:44:26.221Z,20.76
2022-10-17T10:47:15.070Z,21.57
2022-10-17T10:49:42.100Z,21.50
2022-10-17T10:52:15.919Z,21.66
2022-10-17T10:54:51.354Z,21.86
2022-10-17T10:57:21.148Z,21.78
2022-10-17T10:59:58.335Z,21.65
2022-10-17T11:02:36.857Z,22.11
2022-10-17T11:05:44.153Z,22.24
2022-10-17T11:08:14.088Z,22.50
2022-10-17T11:11:19.772Z,22.61
2022-10-17T11:13:58.306Z,23.09
2022-10-17T11:16:36.811Z,23.38
2022-10-17T11:19:28.421Z,23.12
2022-10-17T11:22:02.541Z,22.79
2022-10-17T11:24:35.950Z,23.02
2022-10-17T11:27:05.260Z,22.92
2022-10-17T11:29:34.012Z,22.44
2022-10-17T11:32:06.482Z,22.34
2022-10-17T11:34:39.289Z,22.45
2022-10-17T11:37:13.762Z,22.23
2022-10-17T11:39:50.322Z,22.23
2022-10-17T11:42:31.654Z,22.02
2022-10-17T11:45:08.602Z,21.73
2022-10-17T11:47:40.689Z,21.76
2022-10-17T11:53:21.783Z,21.74
2022-10-17T11:55:50.467Z,21.74
2022-10-17T11:58:35.843Z,21.77
2022-10-17T12:01:23.767Z,21.67
2022-10-17T12:04:11.499Z,21.55
2022-10-17T12:07:02.072Z,21.25
2022-10-17T12:09:46.043Z,21.26
2022-10-17T12:12:25.747Z,21.55
2022-10-17T12:14:52.707Z,21.54
2022-10-17T12:17:32.435Z,21.57
2022-10-17T12:20:21.236Z,21.62
2022-10-17T12:22:48.784Z,21.68
2022-10-17T12:25:20.230Z,21.58
2022-10-17T12:27:48.223Z,21.36
2022-10-17T12:30:23.931Z,21.46
2022-10-17T12:33:25.680Z,21.59
2022-10-17T12:36:17.692Z,21.55
2022-10-17T12:38:50.264Z,21.46
2022-10-17T12:41:17.341Z,21.52
2022-10-17T12:43:52.570Z,21.37
2022-10-17T12:46:42.918Z,21.38
2022-10-17T12:49:43.448Z,21.30
2022-10-17T12:52:15.978Z,21.13
2022-10-17T12:55:00.322Z,21.30
2022-10-17T12:57:33.784Z,21.37
2022-10-17T13:00:05.228Z,21.42
2022-10-17T13:02:33.041Z,21.47
2022-10-17T13:05:19.258Z,21.59
2022-10-17T13:07:49.216Z,21.48
2022-10-17T13:13:11.586Z,21.41
2022-10-17T13:15:37.997Z,21.52
2022-10-17T13:18:04.662Z,21.31
2022-10-17T13:20:32.065Z,21.49
2022-10-17T13:22:59.464Z,21.44
2022-10-17T13:25:27.202Z,21.52
2022-10-17T13:28:05.721Z,21.50
2022-10-17T13:30:34.973Z,21.32
2022-10-17T13:33:02.161Z,21.24
2022-10-17T13:38:26.066Z,21.39
2022-10-17T13:41:01.374Z,21.29
2022-10-17T13:43:32.886Z,21.17
2022-10-17T13:46:19.303Z,21.07
2022-10-17T13:48:50.546Z,21.05
2022-10-17T13:51:17.036Z,21.02
2022-10-17T13:53:44.463Z,21.02
2022-10-17T13:56:28.324Z,20.99
2022-10-17T13:59:03.480Z,20.93
2022-10-17T14:01:30.899Z,20.94
2022-10-17T14:04:09.029Z,20.93
2022-10-17T14:06:45.162Z,20.91
2022-10-17T14:09:26.803Z,20.87
2022-10-17T14:12:08.533Z,20.76
2022-10-17T14:14:58.099Z,20.78
2022-10-17T14:17:27.648Z,20.59
2022-10-17T14:20:14.194Z,20.59
2022-10-17T14:22:50.430Z,20.59
2022-10-17T14:25:35.297Z,20.48
2022-10-17T14:28:22.510Z,20.39
2022-10-17T14:30:57.315Z,20.34
2022-10-17T14:33:29.843Z,20.26
2022-10-17T14:35:58.432Z,20.21
2022-10-17T14:38:25.604Z,20.10
2022-10-17T14:41:41.466Z,20.01
2022-10-17T14:44:23.558Z,19.92
2022-10-17T14:46:54.551Z,19.85
2022-10-17T14:49:36.104Z,19.81
2022-10-17T14:52:18.774Z,19.82
2022-10-17T14:54:49.659Z,19.84
2022-10-17T14:57:22.184Z,19.85
2022-10-17T14:59:56.075Z,19.77
2022-10-17T15:02:24.576Z,19.69
2022-10-17T15:04:51.468Z,19.58
2022-10-17T15:07:18.392Z,19.62
2022-10-17T15:09:47.239Z,19.48
2022-10-17T15:12:16.686Z,19.53
2022-10-17T15:14:44.140Z,19.51
2022-10-17T15:17:15.317Z,19.43
2022-10-17T15:19:41.812Z,19.40
2022-10-17T15:22:08.226Z,19.33
2022-10-17T15:24:34.640Z,19.27
2022-10-17T15:27:01.094Z,19.25
2022-10-17T15:29:28.295Z,19.17
2022-10-17T15:31:54.654Z,19.06
2022-10-17T15:34:21.086Z,19.07
2022-10-17T15:36:51.879Z,18.99
2022-10-17T15:39:18.292Z,18.97
2022-10-17T15:41:44.857Z,18.94
2022-10-17T15:44:11.358Z,18.88
2022-10-17T15:46:40.469Z,18.91
2022-10-17T15:49:11.259Z,18.79
2022-10-17T15:51:37.925Z,18.77
2022-10-17T15:54:05.607Z,18.68
2022-10-17T15:56:37.335Z,18.64
2022-10-17T15:59:12.140Z,18.61
2022-10-17T16:01:39.426Z,18.52
2022-10-17T16:04:06.096Z,18.32
2022-10-17T16:06:32.495Z,18.25
2022-10-17T16:08:58.918Z,18.31
2022-10-17T16:11:31.424Z,18.22
2022-10-17T16:14:00.469Z,18.16
2022-10-17T16:16:27.280Z,18.10
2022-10-17T16:18:54.003Z,18.08
2022-10-17T16:21:25.210Z,18.04
2022-10-17T16:23:52.451Z,18.02
2022-10-17T16:26:19.291Z,17.96
2022-10-17T16:28:46.481Z,17.94
2022-10-17T16:31:20.518Z,17.96
2022-10-17T16:33:48.206Z,17.96
2022-10-17T16:36:14.642Z,17.96
2022-10-17T16:38:41.033Z,17.85
2022-10-17T16:41:37.302Z,17.81
2022-10-17T16:44:06.678Z,17.85
2022-10-17T16:46:35.481Z,17.77
2022-10-17T16:49:04.776Z,17.81
2022-10-17T16:51:33.635Z,17.68
2022-10-17T16:54:00.302Z,17.72
2022-10-17T16:56:32.622Z,17.71
2022-10-17T16:59:00.647Z,17.72
2022-10-17T17:01:29.314Z,17.66
2022-10-17T17:03:56.197Z,17.72
2022-10-17T17:06:29.347Z,17.59
2022-10-17T17:08:56.405Z,17.72
2022-10-17T17:11:25.542Z,17.69
2022-10-17T17:13:52.243Z,17.64
2022-10-17T17:16:21.502Z,17.57
2022-10-17T17:18:50.802Z,17.55
2022-10-17T17:21:17.453Z,17.51
2022-10-17T17:23:43.847Z,17.47
2022-10-17T17:26:16.946Z,17.43
2022-10-17T17:28:43.856Z,17.34
2022-10-17T17:31:12.819Z,17.34
2022-10-17T17:33:40.737Z,17.25
2022-10-17T17:36:08.114Z,17.22
2022-10-17T17:38:35.166Z,17.26
2022-10-17T17:41:01.742Z,17.29
2022-10-17T17:43:28.470Z,17.22
2022-10-17T17:45:54.915Z,17.17
2022-10-17T17:48:21.712Z,17.13
2022-10-17T17:50:48.516Z,17.29
2022-10-17T17:53:16.164Z,17.32
2022-10-17T17:55:42.635Z,17.45
2022-10-17T17:58:09.796Z,17.40
2022-10-17T18:00:36.351Z,17.42
2022-10-17T18:03:03.332Z,17.28
2022-10-17T18:05:29.898Z,17.35
2022-10-17T18:07:56.365Z,17.33
2022-10-17T18:10:22.747Z,17.28
2022-10-17T18:12:49.178Z,17.23
2022-10-17T18:15:15.913Z,17.17
2022-10-17T18:17:42.559Z,17.20
2022-10-17T18:20:09.673Z,17.13
2022-10-17T18:22:36.074Z,17.17
2022-10-17T18:25:02.523Z,17.24
2022-10-17T18:27:28.912Z,17.23
2022-10-17T18:29:55.318Z,17.29
2022-10-17T18:32:21.803Z,17.33
2022-10-17T18:34:48.163Z,17.26
2022-10-17T18:37:14.587Z,17.26
2022-10-17T18:39:41.052Z,17.17
2022-10-17T18:42:07.765Z,17.08
2022-10-17T18:44:34.271Z,17.10
2022-10-17T18:47:03.872Z,16.97
2022-10-17T18:49:31.412Z,16.99
2022-10-17T18:51:59.453Z,17.07
2022-10-17T18:54:25.881Z,16.95
2022-10-17T18:56:54.650Z,16.88
2022-10-17T18:59:21.164Z,16.83
2022-10-17T19:01:48.542Z,16.78
2022-10-17T19:04:15.024Z,16.74
2022-10-17T19:06:43.068Z,16.74
2022-10-17T19:09:11.147Z,16.75
2022-10-17T19:11:38.540Z,16.73
2022-10-17T19:14:10.809Z,16.61
2022-10-17T19:16:37.587Z,16.61
2022-10-17T19:19:06.697Z,16.70
2022-10-17T19:21:34.009Z,16.61
2022-10-17T19:24:01.780Z,16.58
2022-10-17T19:26:30.523Z,16.68
2022-10-17T19:28:57.298Z,16.67
2022-10-17T19:31:27.298Z,16.71
2022-10-17T19:33:55.438Z,16.71
2022-10-17T19:36:26.316Z,16.76
2022-10-17T19:38:56.294Z,16.75
2022-10-17T19:41:23.214Z,16.77
2022-10-17T19:43:50.097Z,16.80
2022-10-17T19:46:19.664Z,16.73
2022-10-17T19:48:47.881Z,16.57
2022-10-17T19:51:15.965Z,16.68
2022-10-17T19:53:42.953Z,16.66
2022-10-17T19:56:11.665Z,16.60
2022-10-17T19:58:45.241Z,16.69
2022-10-17T20:01:23.493Z,16.58
2022-10-17T20:03:50.581Z,16.62
2022-10-17T20:06:17.637Z,16.60
2022-10-17T20:08:44.395Z,16.51
2022-10-17T20:11:15.314Z,16.47
2022-10-17T20:13:42.236Z,16.48
2022-10-17T20:16:12.124Z,16.48
2022-10-17T20:18:40.638Z,16.42
2022-10-17T20:21:10.977Z,16.50
2022-10-17T20:23:38.532Z,16.37
2022-10-17T20:26:25.346Z,16.23
2022-10-17T20:28:53.081Z,16.41
2022-10-17T20:31:20.435Z,16.32
2022-10-17T20:33:47.024Z,16.24
2022-10-17T20:36:14.521Z,16.20
2022-10-17T20:38:40.901Z,16.16
2022-10-17T20:41:09.384Z,16.10
2022-10-17T20:43:36.768Z,16.04
2022-10-17T20:46:15.543Z,15.98
2022-10-17T20:48:54.124Z,15.98
2022-10-17T20:51:21.311Z,15.91
2022-10-17T20:53:48.773Z,15.87
2022-10-17T20:56:21.481Z,15.79
2022-10-17T20:58:56.480Z,15.68
2022-10-17T21:01:24.158Z,15.62
2022-10-17T21:03:50.790Z,15.53
2022-10-17T21:06:18.019Z,15.51
2022-10-17T21:08:46.078Z,15.52
2022-10-17T21:11:15.290Z,15.55
2022-10-17T21:13:42.192Z,15.54
2022-10-17T21:16:16.941Z,15.51
2022-10-17T21:18:43.737Z,15.50
2022-10-17T21:21:21.995Z,15.44
2022-10-17T21:23:49.751Z,15.46
2022-10-17T21:26:17.696Z,15.45
2022-10-17T21:28:46.047Z,15.43
2022-10-17T21:31:16.191Z,15.49
2022-10-17T21:33:48.802Z,15.38
2022-10-17T21:36:16.808Z,15.35
2022-10-17T21:38:45.197Z,15.35
2022-10-17T21:41:13.967Z,15.35
2022-10-17T21:43:41.578Z,15.33
2022-10-17T21:46:17.027Z,15.34
2022-10-17T21:48:44.460Z,15.44
2022-10-17T21:51:12.358Z,15.36
2022-10-17T21:53:39.020Z,15.33
2022-10-17T21:56:08.012Z,15.35
2022-10-17T21:58:34.488Z,15.35
2022-10-17T22:01:11.028Z,15.38
2022-10-17T22:03:42.747Z,15.37
2022-10-17T22:09:00.694Z,15.30
2022-10-17T22:11:30.652Z,15.29
2022-10-17T22:14:10.838Z,15.28
2022-10-17T22:16:38.158Z,15.28
2022-10-17T22:19:06.625Z,15.22
2022-10-17T22:21:35.215Z,15.20
2022-10-17T22:24:06.139Z,15.17
2022-10-17T22:26:34.123Z,15.15
2022-10-17T22:29:01.028Z,15.08
2022-10-17T22:31:27.668Z,15.04
2022-10-17T22:33:54.187Z,14.98
2022-10-17T22:36:20.772Z,14.96
2022-10-17T22:38:47.478Z,14.96
2022-10-17T22:41:14.002Z,14.90
2022-10-17T22:43:40.395Z,14.88
2022-10-17T22:46:07.862Z,14.86
2022-10-17T22:48:34.397Z,14.77
2022-10-17T22:51:01.361Z,14.70
2022-10-17T22:53:29.526Z,14.66
2022-10-17T22:56:01.326Z,14.64
2022-10-17T22:58:29.254Z,14.58
2022-10-17T23:00:56.159Z,14.58
2022-10-17T23:03:23.738Z,14.54
2022-10-17T23:05:51.007Z,14.48
2022-10-17T23:08:18.263Z,14.43
2022-10-17T23:10:45.849Z,14.37
2022-10-17T23:13:13.127Z,14.40
2022-10-17T23:15:39.898Z,14.40
2022-10-17T23:18:06.717Z,14.41
2022-10-17T23:20:33.098Z,14.37
2022-10-17T23:22:59.520Z,14.32
2022-10-17T23:25:26.302Z,14.27
2022-10-17T23:27:53.211Z,14.26
2022-10-17T23:30:19.655Z,14.25
2022-10-17T23:32:46.082Z,14.25
2022-10-17T23:35:12.510Z,14.21
2022-10-17T23:37:38.903Z,14.18
2022-10-17T23:40:06.405Z,14.09
2022-10-17T23:42:32.767Z,13.97
2022-10-17T23:44:59.127Z,13.99
2022-10-17T23:47:25.511Z,13.93
2022-10-17T23:49:51.978Z,13.94
2022-10-17T23:52:18.375Z,13.78
2022-10-17T23:54:44.840Z,13.80
2022-10-17T23:57:11.273Z,13.76
2022-10-17T23:59:37.654Z,13.74
